sensor_id;sensor_type;location;lat;lon;timestamp;temperature;humidity
2158;DHT22;41972;48.774;9.282;2023-02-11T00:01:33;-2.50;99.90
2158;DHT22;41972;48.774;9.282;2023-02-11T00:03:59;-2.60;99.90
2158;DHT22;41972;48.774;9.282;2023-02-11T00:06:27;-2.50;99.90
2158;DHT22;41972;48.774;9.282;2023-02-11T00:08:54;-2.50;99.90
2158;DHT22;41972;48.774;9.282;2023-02-11T00:11:21;-2.50;99.90
2158;DHT22;41972;48.774;9.282;2023-02-11T00:13:47;-2.80;99.90
2158;DHT22;41972;48.774;9.282;2023-02-11T00:16:17;-2.70;99.90
2158;DHT22;41972;48.774;9.282;2023-02-11T00:18:43;-2.60;99.90
2158;DHT22;41972;48.774;9.282;2023-02-11T00:21:14;-2.70;99.90
2158;DHT22;41972;48.774;9.282;2023-02-11T00:23:42;-2.60;99.90
2158;DHT22;41972;48.774;9.282;2023-02-11T00:26:12;-2.60;99.90
2158;DHT22;41972;48.774;9.282;2023-02-11T00:28:39;-2.70;99.90
2158;DHT22;41972;48.774;9.282;2023-02-11T00:31:05;-2.70;99.90
2158;DHT22;41972;48.774;9.282;2023-02-11T00:33:30;-2.60;99.90
2158;DHT22;41972;48.774;9.282;2023-02-11T00:35:56;-2.70;99.90
2158;DHT22;41972;48.774;9.282;2023-02-11T00:38:21;-2.70;99.90
2158;DHT22;41972;48.774;9.282;2023-02-11T00:40:47;-2.60;99.90
2158;DHT22;41972;48.774;9.282;2023-02-11T00:43:13;-2.70;99.90
2158;DHT22;41972;48.774;9.282;2023-02-11T00:45:38;-2.70;99.90
2158;DHT22;41972;48.774;9.282;2023-02-11T00:48:04;-2.60;99.90
2158;DHT22;41972;48.774;9.282;2023-02-11T00:50:29;-2.60;99.90
2158;DHT22;41972;48.774;9.282;2023-02-11T00:52:55;-2.50;99.90
2158;DHT22;41972;48.774;9.282;2023-02-11T00:55:21;-2.40;99.90
2158;DHT22;41972;48.774;9.282;2023-02-11T00:57:46;-2.30;99.90
2158;DHT22;41972;48.774;9.282;2023-02-11T01:00:13;-2.30;99.90
2158;DHT22;41972;48.774;9.282;2023-02-11T01:02:40;-2.40;99.90
2158;DHT22;41972;48.774;9.282;2023-02-11T01:05:06;-2.50;99.90
2158;DHT22;41972;48.774;9.282;2023-02-11T01:07:31;-2.40;99.90
2158;DHT22;41972;48.774;9.282;2023-02-11T01:09:57;-2.30;99.90
2158;DHT22;41972;48.774;9.282;2023-02-11T01:12:22;-2.40;99.90
2158;DHT22;41972;48.774;9.282;2023-02-11T01:14:48;-2.40;99.90
2158;DHT22;41972;48.774;9.282;2023-02-11T01:17:13;-2.40;99.90
2158;DHT22;41972;48.774;9.282;2023-02-11T01:19:41;-2.30;99.90
2158;DHT22;41972;48.774;9.282;2023-02-11T01:22:06;-2.20;99.90
2158;DHT22;41972;48.774;9.282;2023-02-11T01:24:32;-2.10;99.90
2158;DHT22;41972;48.774;9.282;2023-02-11T01:26:58;-2.10;99.90
2158;DHT22;41972;48.774;9.282;2023-02-11T01:29:23;-2.10;99.90
2158;DHT22;41972;48.774;9.282;2023-02-11T01:31:49;-2.10;99.90
2158;DHT22;41972;48.774;9.282;2023-02-11T01:34:15;-2.30;99.90
2158;DHT22;41972;48.774;9.282;2023-02-11T01:36:41;-2.20;99.90
2158;DHT22;41972;48.774;9.282;2023-02-11T01:39:07;-2.20;99.90
2158;DHT22;41972;48.774;9.282;2023-02-11T01:41:36;-2.10;99.90
2158;DHT22;41972;48.774;9.282;2023-02-11T01:44:30;-2.10;99.90
2158;DHT22;41972;48.774;9.282;2023-02-11T01:46:56;-2.00;99.90
2158;DHT22;41972;48.774;9.282;2023-02-11T01:49:31;-2.00;99.90
2158;DHT22;41972;48.774;9.282;2023-02-11T01:52:11;-2.00;99.90
2158;DHT22;41972;48.774;9.282;2023-02-11T01:54:47;-2.00;99.90
2158;DHT22;41972;48.774;9.282;2023-02-11T01:57:33;-2.20;99.90
2158;DHT22;41972;48.774;9.282;2023-02-11T02:00:06;-2.20;99.90
2158;DHT22;41972;48.774;9.282;2023-02-11T02:05:39;-2.30;99.90
2158;DHT22;41972;48.774;9.282;2023-02-11T02:08:34;-2.30;99.90
2158;DHT22;41972;48.774;9.282;2023-02-11T02:11:00;-2.30;99.90
2158;DHT22;41972;48.774;9.282;2023-02-11T02:13:28;-2.30;99.90
2158;DHT22;41972;48.774;9.282;2023-02-11T02:16:03;-2.50;99.90
2158;DHT22;41972;48.774;9.282;2023-02-11T02:27:14;-2.80;99.90
2158;DHT22;41972;48.774;9.282;2023-02-11T02:29:55;-2.70;99.90
2158;DHT22;41972;48.774;9.282;2023-02-11T02:38:02;-2.80;99.90
2158;DHT22;41972;48.774;9.282;2023-02-11T02:40:40;-2.70;99.90
2158;DHT22;41972;48.774;9.282;2023-02-11T02:43:08;-2.80;99.90
2158;DHT22;41972;48.774;9.282;2023-02-11T02:45:35;-2.70;99.90
2158;DHT22;41972;48.774;9.282;2023-02-11T02:48:00;-2.70;99.90
2158;DHT22;41972;48.774;9.282;2023-02-11T02:50:30;-2.60;99.90
2158;DHT22;41972;48.774;9.282;2023-02-11T02:58:32;-2.60;99.90
2158;DHT22;41972;48.774;9.282;2023-02-11T03:01:14;-2.70;99.90
2158;DHT22;41972;48.774;9.282;2023-02-11T03:09:15;-2.70;99.90
2158;DHT22;41972;48.774;9.282;2023-02-11T03:11:42;-2.50;99.90
2158;DHT22;41972;48.774;9.282;2023-02-11T03:14:12;-2.40;99.90
2158;DHT22;41972;48.774;9.282;2023-02-11T03:16:39;-2.30;99.90
2158;DHT22;41972;48.774;9.282;2023-02-11T03:19:12;-2.20;99.90
2158;DHT22;41972;48.774;9.282;2023-02-11T03:21:40;-2.20;99.90
2158;DHT22;41972;48.774;9.282;2023-02-11T03:24:11;-2.00;99.90
2158;DHT22;41972;48.774;9.282;2023-02-11T03:26:48;-2.00;99.90
2158;DHT22;41972;48.774;9.282;2023-02-11T03:29:17;-2.00;99.90
2158;DHT22;41972;48.774;9.282;2023-02-11T03:32:20;-2.00;99.90
2158;DHT22;41972;48.774;9.282;2023-02-11T03:34:53;-2.00;99.90
2158;DHT22;41972;48.774;9.282;2023-02-11T03:37:39;-2.00;99.90
2158;DHT22;41972;48.774;9.282;2023-02-11T03:40:07;-2.00;99.90
2158;DHT22;41972;48.774;9.282;2023-02-11T03:42:43;-1.80;99.90
2158;DHT22;41972;48.774;9.282;2023-02-11T03:45:12;-1.80;99.90
2158;DHT22;41972;48.774;9.282;2023-02-11T03:47:44;-1.80;99.90
2158;DHT22;41972;48.774;9.282;2023-02-11T03:50:12;-1.60;99.90
2158;DHT22;41972;48.774;9.282;2023-02-11T03:52:39;-1.40;99.90
2158;DHT22;41972;48.774;9.282;2023-02-11T03:55:14;-1.30;99.90
2158;DHT22;41972;48.774;9.282;2023-02-11T03:57:40;-1.30;99.90
2158;DHT22;41972;48.774;9.282;2023-02-11T04:00:07;-1.20;99.90
2158;DHT22;41972;48.774;9.282;2023-02-11T04:02:35;-1.10;99.90
2158;DHT22;41972;48.774;9.282;2023-02-11T04:05:01;-1.00;99.90
2158;DHT22;41972;48.774;9.282;2023-02-11T04:07:28;-1.00;99.90
2158;DHT22;41972;48.774;9.282;2023-02-11T04:09:53;-1.00;99.90
2158;DHT22;41972;48.774;9.282;2023-02-11T04:12:19;-1.00;99.90
2158;DHT22;41972;48.774;9.282;2023-02-11T04:14:44;-1.00;99.90
2158;DHT22;41972;48.774;9.282;2023-02-11T04:17:11;-0.90;99.90
2158;DHT22;41972;48.774;9.282;2023-02-11T04:19:36;-0.90;99.90
2158;DHT22;41972;48.774;9.282;2023-02-11T04:22:03;-0.80;99.90
2158;DHT22;41972;48.774;9.282;2023-02-11T04:24:29;-0.80;99.90
2158;DHT22;41972;48.774;9.282;2023-02-11T04:26:54;-0.80;99.90
2158;DHT22;41972;48.774;9.282;2023-02-11T04:29:20;-0.80;99.90
2158;DHT22;41972;48.774;9.282;2023-02-11T04:31:46;-0.70;99.90
2158;DHT22;41972;48.774;9.282;2023-02-11T04:34:11;-0.60;99.90
2158;DHT22;41972;48.774;9.282;2023-02-11T04:36:37;-0.60;99.90
2158;DHT22;41972;48.774;9.282;2023-02-11T04:39:03;-0.50;99.90
2158;DHT22;41972;48.774;9.282;2023-02-11T04:41:28;-0.50;99.90
2158;DHT22;41972;48.774;9.282;2023-02-11T04:43:54;-0.40;99.90
2158;DHT22;41972;48.774;9.282;2023-02-11T04:46:19;-0.40;99.90
2158;DHT22;41972;48.774;9.282;2023-02-11T04:48:45;-0.50;99.90
2158;DHT22;41972;48.774;9.282;2023-02-11T04:51:10;-0.50;99.90
2158;DHT22;41972;48.774;9.282;2023-02-11T04:53:36;-0.40;99.90
2158;DHT22;41972;48.774;9.282;2023-02-11T04:56:01;-0.50;99.90
2158;DHT22;41972;48.774;9.282;2023-02-11T04:58:27;-0.70;99.90
2158;DHT22;41972;48.774;9.282;2023-02-11T05:00:53;-0.60;99.90
2158;DHT22;41972;48.774;9.282;2023-02-11T05:03:18;-0.60;99.90
2158;DHT22;41972;48.774;9.282;2023-02-11T05:05:44;-0.60;99.90
2158;DHT22;41972;48.774;9.282;2023-02-11T05:08:10;-0.60;99.90
2158;DHT22;41972;48.774;9.282;2023-02-11T05:10:36;-0.70;99.90
2158;DHT22;41972;48.774;9.282;2023-02-11T05:13:01;-0.60;99.90
2158;DHT22;41972;48.774;9.282;2023-02-11T05:15:28;-0.60;99.90
2158;DHT22;41972;48.774;9.282;2023-02-11T05:17:54;-0.70;99.90
2158;DHT22;41972;48.774;9.282;2023-02-11T05:20:20;-0.60;99.90
2158;DHT22;41972;48.774;9.282;2023-02-11T05:22:46;-0.40;99.90
2158;DHT22;41972;48.774;9.282;2023-02-11T05:25:11;-0.60;99.90
2158;DHT22;41972;48.774;9.282;2023-02-11T05:27:37;-0.50;99.90
2158;DHT22;41972;48.774;9.282;2023-02-11T05:30:03;-0.50;99.90
2158;DHT22;41972;48.774;9.282;2023-02-11T05:32:30;-0.60;99.90
2158;DHT22;41972;48.774;9.282;2023-02-11T05:34:55;-0.50;99.90
2158;DHT22;41972;48.774;9.282;2023-02-11T05:37:21;-0.50;99.90
2158;DHT22;41972;48.774;9.282;2023-02-11T05:39:47;-0.50;99.90
2158;DHT22;41972;48.774;9.282;2023-02-11T05:42:12;-0.50;99.90
2158;DHT22;41972;48.774;9.282;2023-02-11T05:44:38;-0.50;99.90
2158;DHT22;41972;48.774;9.282;2023-02-11T05:47:04;-0.40;99.90
2158;DHT22;41972;48.774;9.282;2023-02-11T05:49:29;-0.30;99.90
2158;DHT22;41972;48.774;9.282;2023-02-11T05:51:55;-0.50;99.90
2158;DHT22;41972;48.774;9.282;2023-02-11T05:54:21;-0.60;99.90
2158;DHT22;41972;48.774;9.282;2023-02-11T05:56:46;-0.40;99.90
2158;DHT22;41972;48.774;9.282;2023-02-11T05:59:13;-0.30;99.90
2158;DHT22;41972;48.774;9.282;2023-02-11T06:01:39;-0.20;99.90
2158;DHT22;41972;48.774;9.282;2023-02-11T06:04:04;-0.30;99.90
2158;DHT22;41972;48.774;9.282;2023-02-11T06:06:30;-0.20;99.90
2158;DHT22;41972;48.774;9.282;2023-02-11T06:08:55;-0.20;99.90
2158;DHT22;41972;48.774;9.282;2023-02-11T06:11:21;-0.20;99.90
2158;DHT22;41972;48.774;9.282;2023-02-11T06:13:46;-0.20;99.90
2158;DHT22;41972;48.774;9.282;2023-02-11T06:16:12;-0.10;99.90
2158;DHT22;41972;48.774;9.282;2023-02-11T06:18:38;-0.50;99.90
2158;DHT22;41972;48.774;9.282;2023-02-11T06:21:10;-0.30;99.90
2158;DHT22;41972;48.774;9.282;2023-02-11T06:23:36;-0.50;99.90
2158;DHT22;41972;48.774;9.282;2023-02-11T06:26:03;-0.40;99.90
2158;DHT22;41972;48.774;9.282;2023-02-11T06:28:29;-0.50;99.90
2158;DHT22;41972;48.774;9.282;2023-02-11T06:30:56;-0.60;99.90
2158;DHT22;41972;48.774;9.282;2023-02-11T06:33:22;-0.40;99.90
2158;DHT22;41972;48.774;9.282;2023-02-11T06:35:47;-0.30;99.90
2158;DHT22;41972;48.774;9.282;2023-02-11T06:38:13;-0.20;99.90
2158;DHT22;41972;48.774;9.282;2023-02-11T06:40:38;-0.20;99.90
2158;DHT22;41972;48.774;9.282;2023-02-11T06:43:04;-0.10;99.90
2158;DHT22;41972;48.774;9.282;2023-02-11T06:45:30;0.00;99.90
2158;DHT22;41972;48.774;9.282;2023-02-11T06:47:55;-0.10;99.90
2158;DHT22;41972;48.774;9.282;2023-02-11T06:50:21;-0.50;99.90
2158;DHT22;41972;48.774;9.282;2023-02-11T06:52:46;-0.40;99.90
2158;DHT22;41972;48.774;9.282;2023-02-11T06:55:12;-0.40;99.90
2158;DHT22;41972;48.774;9.282;2023-02-11T06:57:37;-0.50;99.90
2158;DHT22;41972;48.774;9.282;2023-02-11T07:00:03;-0.30;99.90
2158;DHT22;41972;48.774;9.282;2023-02-11T07:02:29;-0.20;99.90
2158;DHT22;41972;48.774;9.282;2023-02-11T07:04:54;-0.10;99.90
2158;DHT22;41972;48.774;9.282;2023-02-11T07:07:20;0.10;99.90
2158;DHT22;41972;48.774;9.282;2023-02-11T07:09:47;0.00;99.90
2158;DHT22;41972;48.774;9.282;2023-02-11T07:12:13;-0.20;99.90
2158;DHT22;41972;48.774;9.282;2023-02-11T07:14:38;0.00;99.90
2158;DHT22;41972;48.774;9.282;2023-02-11T07:17:04;0.20;99.90
2158;DHT22;41972;48.774;9.282;2023-02-11T07:19:29;0.30;99.90
2158;DHT22;41972;48.774;9.282;2023-02-11T07:21:55;0.30;99.90
2158;DHT22;41972;48.774;9.282;2023-02-11T07:24:20;0.50;99.90
2158;DHT22;41972;48.774;9.282;2023-02-11T07:26:47;0.60;99.90
2158;DHT22;41972;48.774;9.282;2023-02-11T07:29:13;0.30;99.90
2158;DHT22;41972;48.774;9.282;2023-02-11T07:31:38;0.40;99.90
2158;DHT22;41972;48.774;9.282;2023-02-11T07:34:04;0.80;99.90
2158;DHT22;41972;48.774;9.282;2023-02-11T07:36:30;0.80;99.90
2158;DHT22;41972;48.774;9.282;2023-02-11T07:38:59;0.90;99.90
2158;DHT22;41972;48.774;9.282;2023-02-11T07:41:26;1.00;99.90
2158;DHT22;41972;48.774;9.282;2023-02-11T07:43:52;1.10;99.90
2158;DHT22;41972;48.774;9.282;2023-02-11T07:46:20;1.00;99.90
2158;DHT22;41972;48.774;9.282;2023-02-11T07:48:46;1.20;99.90
2158;DHT22;41972;48.774;9.282;2023-02-11T07:51:21;1.20;99.90
2158;DHT22;41972;48.774;9.282;2023-02-11T07:53:47;1.20;99.90
2158;DHT22;41972;48.774;9.282;2023-02-11T07:56:14;1.40;99.90
2158;DHT22;41972;48.774;9.282;2023-02-11T07:58:40;1.60;99.90
2158;DHT22;41972;48.774;9.282;2023-02-11T08:01:09;1.90;99.90
2158;DHT22;41972;48.774;9.282;2023-02-11T08:03:35;1.70;99.90
2158;DHT22;41972;48.774;9.282;2023-02-11T08:06:07;1.80;99.90
2158;DHT22;41972;48.774;9.282;2023-02-11T08:08:33;1.70;99.90
2158;DHT22;41972;48.774;9.282;2023-02-11T08:11:05;1.70;99.90
2158;DHT22;41972;48.774;9.282;2023-02-11T08:13:31;2.10;99.90
2158;DHT22;41972;48.774;9.282;2023-02-11T08:15:58;2.10;99.90
2158;DHT22;41972;48.774;9.282;2023-02-11T08:18:24;2.20;99.90
2158;DHT22;41972;48.774;9.282;2023-02-11T08:20:50;2.60;99.90
2158;DHT22;41972;48.774;9.282;2023-02-11T08:23:15;3.80;99.90
2158;DHT22;41972;48.774;9.282;2023-02-11T08:25:41;4.10;99.90
2158;DHT22;41972;48.774;9.282;2023-02-11T08:28:06;3.90;99.90
2158;DHT22;41972;48.774;9.282;2023-02-11T08:30:33;4.10;99.90
2158;DHT22;41972;48.774;9.282;2023-02-11T08:32:59;4.20;99.90
2158;DHT22;41972;48.774;9.282;2023-02-11T08:35:24;4.00;99.90
2158;DHT22;41972;48.774;9.282;2023-02-11T08:37:51;2.90;99.90
2158;DHT22;41972;48.774;9.282;2023-02-11T08:40:16;3.30;99.90
2158;DHT22;41972;48.774;9.282;2023-02-11T08:42:42;3.30;99.90
2158;DHT22;41972;48.774;9.282;2023-02-11T08:45:08;3.20;99.90
2158;DHT22;41972;48.774;9.282;2023-02-11T08:47:35;3.40;99.90
2158;DHT22;41972;48.774;9.282;2023-02-11T08:50:00;4.20;99.90
2158;DHT22;41972;48.774;9.282;2023-02-11T08:52:26;5.00;99.90
2158;DHT22;41972;48.774;9.282;2023-02-11T08:54:52;6.10;99.90
2158;DHT22;41972;48.774;9.282;2023-02-11T08:57:17;7.40;99.90
2158;DHT22;41972;48.774;9.282;2023-02-11T08:59:43;7.90;99.70
2158;DHT22;41972;48.774;9.282;2023-02-11T09:02:12;6.60;99.10
2158;DHT22;41972;48.774;9.282;2023-02-11T09:04:38;6.40;99.60
2158;DHT22;41972;48.774;9.282;2023-02-11T09:07:04;7.80;98.60
2158;DHT22;41972;48.774;9.282;2023-02-11T09:09:29;7.00;98.00
2158;DHT22;41972;48.774;9.282;2023-02-11T09:11:55;6.30;98.50
2158;DHT22;41972;48.774;9.282;2023-02-11T09:14:22;6.80;98.20
2158;DHT22;41972;48.774;9.282;2023-02-11T09:16:49;7.20;98.20
2158;DHT22;41972;48.774;9.282;2023-02-11T09:19:16;7.20;98.40
2158;DHT22;41972;48.774;9.282;2023-02-11T09:21:42;8.20;96.00
2158;DHT22;41972;48.774;9.282;2023-02-11T09:24:08;8.20;95.30
2158;DHT22;41972;48.774;9.282;2023-02-11T09:26:34;8.10;98.30
2158;DHT22;41972;48.774;9.282;2023-02-11T09:29:01;9.00;93.50
2158;DHT22;41972;48.774;9.282;2023-02-11T09:31:29;8.60;93.70
2158;DHT22;41972;48.774;9.282;2023-02-11T09:33:57;8.70;94.40
2158;DHT22;41972;48.774;9.282;2023-02-11T09:36:28;10.00;91.10
2158;DHT22;41972;48.774;9.282;2023-02-11T09:38:56;10.80;87.90
2158;DHT22;41972;48.774;9.282;2023-02-11T09:44:07;11.30;74.10
2158;DHT22;41972;48.774;9.282;2023-02-11T09:46:36;10.70;73.20
2158;DHT22;41972;48.774;9.282;2023-02-11T09:49:04;8.40;78.00
2158;DHT22;41972;48.774;9.282;2023-02-11T09:51:48;8.60;77.50
2158;DHT22;41972;48.774;9.282;2023-02-11T09:54:36;9.00;79.90
2158;DHT22;41972;48.774;9.282;2023-02-11T09:57:06;11.70;72.60
2158;DHT22;41972;48.774;9.282;2023-02-11T09:59:33;11.50;72.40
2158;DHT22;41972;48.774;9.282;2023-02-11T10:02:03;12.70;68.30
2158;DHT22;41972;48.774;9.282;2023-02-11T10:04:56;14.30;60.00
2158;DHT22;41972;48.774;9.282;2023-02-11T10:07:45;13.70;49.40
2158;DHT22;41972;48.774;9.282;2023-02-11T10:10:28;12.20;50.80
2158;DHT22;41972;48.774;9.282;2023-02-11T10:13:11;12.10;57.80
2158;DHT22;41972;48.774;9.282;2023-02-11T10:15:55;15.60;48.70
2158;DHT22;41972;48.774;9.282;2023-02-11T10:22:31;17.00;29.10
2158;DHT22;41972;48.774;9.282;2023-02-11T10:24:27;17.00;28.90
2158;DHT22;41972;48.774;9.282;2023-02-11T10:26:53;15.10;25.30
2158;DHT22;41972;48.774;9.282;2023-02-11T10:29:38;14.60;26.30
2158;DHT22;41972;48.774;9.282;2023-02-11T10:32:59;14.20;26.10
2158;DHT22;41972;48.774;9.282;2023-02-11T10:35:16;14.20;27.80
2158;DHT22;41972;48.774;9.282;2023-02-11T10:37:42;13.90;27.90
2158;DHT22;41972;48.774;9.282;2023-02-11T10:40:20;13.40;25.90
2158;DHT22;41972;48.774;9.282;2023-02-11T10:42:52;11.90;27.80
2158;DHT22;41972;48.774;9.282;2023-02-11T10:45:24;12.10;30.30
2158;DHT22;41972;48.774;9.282;2023-02-11T10:47:51;14.40;30.30
2158;DHT22;41972;48.774;9.282;2023-02-11T10:50:21;14.40;27.70
2158;DHT22;41972;48.774;9.282;2023-02-11T10:52:47;16.10;29.70
2158;DHT22;41972;48.774;9.282;2023-02-11T10:57:50;18.50;21.20
2158;DHT22;41972;48.774;9.282;2023-02-11T11:02:42;18.10;20.50
2158;DHT22;41972;48.774;9.282;2023-02-11T11:05:17;19.80;20.10
2158;DHT22;41972;48.774;9.282;2023-02-11T11:07:56;15.20;17.80
2158;DHT22;41972;48.774;9.282;2023-02-11T11:12:58;14.90;19.90
2158;DHT22;41972;48.774;9.282;2023-02-11T11:15:27;15.10;20.10
2158;DHT22;41972;48.774;9.282;2023-02-11T11:20:37;16.00;20.30
2158;DHT22;41972;48.774;9.282;2023-02-11T11:25:36;16.70;19.00
2158;DHT22;41972;48.774;9.282;2023-02-11T11:28:03;15.70;19.10
2158;DHT22;41972;48.774;9.282;2023-02-11T11:30:39;13.00;20.90
2158;DHT22;41972;48.774;9.282;2023-02-11T11:33:20;10.20;23.50
2158;DHT22;41972;48.774;9.282;2023-02-11T11:36:03;9.10;29.20
2158;DHT22;41972;48.774;9.282;2023-02-11T11:38:31;8.90;31.70
2158;DHT22;41972;48.774;9.282;2023-02-11T11:44:01;9.40;34.00
2158;DHT22;41972;48.774;9.282;2023-02-11T11:46:36;9.50;34.10
2158;DHT22;41972;48.774;9.282;2023-02-11T11:49:16;9.60;34.60
2158;DHT22;41972;48.774;9.282;2023-02-11T11:51:50;8.10;36.30
2158;DHT22;41972;48.774;9.282;2023-02-11T11:54:19;8.10;38.90
2158;DHT22;41972;48.774;9.282;2023-02-11T11:56:53;7.90;39.80
2158;DHT22;41972;48.774;9.282;2023-02-11T11:59:21;8.20;40.70
2158;DHT22;41972;48.774;9.282;2023-02-11T12:07:47;7.80;43.20
2158;DHT22;41972;48.774;9.282;2023-02-11T12:10:34;7.70;45.20
2158;DHT22;41972;48.774;9.282;2023-02-11T12:15:46;7.80;47.20
2158;DHT22;41972;48.774;9.282;2023-02-11T12:18:25;8.30;46.50
2158;DHT22;41972;48.774;9.282;2023-02-11T12:26:28;9.20;48.10
2158;DHT22;41972;48.774;9.282;2023-02-11T12:36:59;9.70;46.80
2158;DHT22;41972;48.774;9.282;2023-02-11T12:42:42;9.50;48.50
2158;DHT22;41972;48.774;9.282;2023-02-11T12:45:43;8.70;52.00
2158;DHT22;41972;48.774;9.282;2023-02-11T12:51:39;8.40;54.00
2158;DHT22;41972;48.774;9.282;2023-02-11T12:54:34;8.60;55.70
2158;DHT22;41972;48.774;9.282;2023-02-11T13:02:40;8.90;57.20
2158;DHT22;41972;48.774;9.282;2023-02-11T13:07:49;8.80;59.10
2158;DHT22;41972;48.774;9.282;2023-02-11T13:10:27;8.80;59.90
2158;DHT22;41972;48.774;9.282;2023-02-11T13:12:55;8.60;61.40
2158;DHT22;41972;48.774;9.282;2023-02-11T13:15:42;8.70;63.20
2158;DHT22;41972;48.774;9.282;2023-02-11T13:20:52;8.70;65.40
2158;DHT22;41972;48.774;9.282;2023-02-11T13:23:28;8.60;66.20
2158;DHT22;41972;48.774;9.282;2023-02-11T13:26:18;8.40;68.00
2158;DHT22;41972;48.774;9.282;2023-02-11T13:29:30;8.40;69.40
2158;DHT22;41972;48.774;9.282;2023-02-11T13:32:11;8.70;70.30
2158;DHT22;41972;48.774;9.282;2023-02-11T13:42:30;8.10;77.70
2158;DHT22;41972;48.774;9.282;2023-02-11T13:44:57;7.90;80.40
2158;DHT22;41972;48.774;9.282;2023-02-11T13:47:29;8.00;81.30
2158;DHT22;41972;48.774;9.282;2023-02-11T13:49:56;8.00;82.50
2158;DHT22;41972;48.774;9.282;2023-02-11T13:52:33;7.90;84.30
2158;DHT22;41972;48.774;9.282;2023-02-11T13:57:39;7.80;88.90
2158;DHT22;41972;48.774;9.282;2023-02-11T14:16:21;7.80;94.00
2158;DHT22;41972;48.774;9.282;2023-02-11T14:21:21;7.80;94.40
2158;DHT22;41972;48.774;9.282;2023-02-11T14:23:48;7.70;94.70
2158;DHT22;41972;48.774;9.282;2023-02-11T14:29:15;7.50;96.00
2158;DHT22;41972;48.774;9.282;2023-02-11T14:34:29;7.80;96.00
2158;DHT22;41972;48.774;9.282;2023-02-11T14:37:10;7.90;96.30
2158;DHT22;41972;48.774;9.282;2023-02-11T14:39:57;7.80;96.90
2158;DHT22;41972;48.774;9.282;2023-02-11T14:42:28;7.80;96.80
2158;DHT22;41972;48.774;9.282;2023-02-11T14:44:58;7.80;97.00
2158;DHT22;41972;48.774;9.282;2023-02-11T14:47:40;7.80;97.00
2158;DHT22;41972;48.774;9.282;2023-02-11T14:50:15;7.80;97.60
2158;DHT22;41972;48.774;9.282;2023-02-11T14:52:42;7.80;97.40
2158;DHT22;41972;48.774;9.282;2023-02-11T14:55:28;8.00;97.40
2158;DHT22;41972;48.774;9.282;2023-02-11T15:01:21;8.10;97.10
2158;DHT22;41972;48.774;9.282;2023-02-11T15:03:48;8.00;97.10
2158;DHT22;41972;48.774;9.282;2023-02-11T15:06:46;8.00;97.00
2158;DHT22;41972;48.774;9.282;2023-02-11T15:09:23;8.00;96.70
2158;DHT22;41972;48.774;9.282;2023-02-11T15:11:54;8.10;96.60
2158;DHT22;41972;48.774;9.282;2023-02-11T15:14:32;8.00;96.60
2158;DHT22;41972;48.774;9.282;2023-02-11T15:17:05;7.90;96.60
2158;DHT22;41972;48.774;9.282;2023-02-11T15:19:35;7.60;97.10
2158;DHT22;41972;48.774;9.282;2023-02-11T15:22:14;7.50;97.50
2158;DHT22;41972;48.774;9.282;2023-02-11T15:24:42;7.40;97.40
2158;DHT22;41972;48.774;9.282;2023-02-11T15:29:48;7.20;97.30
2158;DHT22;41972;48.774;9.282;2023-02-11T15:32:17;7.30;97.10
2158;DHT22;41972;48.774;9.282;2023-02-11T15:34:44;7.20;97.40
2158;DHT22;41972;48.774;9.282;2023-02-11T15:37:13;7.00;97.50
2158;DHT22;41972;48.774;9.282;2023-02-11T15:39:41;7.10;97.40
2158;DHT22;41972;48.774;9.282;2023-02-11T15:42:25;6.90;97.70
2158;DHT22;41972;48.774;9.282;2023-02-11T15:47:49;7.00;98.10
2158;DHT22;41972;48.774;9.282;2023-02-11T15:50:30;7.00;98.30
2158;DHT22;41972;48.774;9.282;2023-02-11T15:52:59;7.00;98.50
2158;DHT22;41972;48.774;9.282;2023-02-11T15:55:28;7.00;98.60
2158;DHT22;41972;48.774;9.282;2023-02-11T15:57:56;6.90;98.90
2158;DHT22;41972;48.774;9.282;2023-02-11T16:00:25;6.90;99.00
2158;DHT22;41972;48.774;9.282;2023-02-11T16:02:52;6.90;99.20
2158;DHT22;41972;48.774;9.282;2023-02-11T16:05:32;6.90;99.30
2158;DHT22;41972;48.774;9.282;2023-02-11T16:11:23;6.80;99.80
2158;DHT22;41972;48.774;9.282;2023-02-11T16:13:50;6.80;99.90
2158;DHT22;41972;48.774;9.282;2023-02-11T16:16:22;6.80;99.90
2158;DHT22;41972;48.774;9.282;2023-02-11T16:18:54;6.90;99.90
2158;DHT22;41972;48.774;9.282;2023-02-11T16:21:31;6.80;99.90
2158;DHT22;41972;48.774;9.282;2023-02-11T16:23:59;6.80;99.90
2158;DHT22;41972;48.774;9.282;2023-02-11T16:26:29;6.80;99.90
2158;DHT22;41972;48.774;9.282;2023-02-11T16:29:28;6.70;99.90
2158;DHT22;41972;48.774;9.282;2023-02-11T16:32:09;6.60;99.90
2158;DHT22;41972;48.774;9.282;2023-02-11T16:34:35;6.50;99.90
2158;DHT22;41972;48.774;9.282;2023-02-11T16:37:03;6.60;99.90
2158;DHT22;41972;48.774;9.282;2023-02-11T16:39:29;6.50;99.90
2158;DHT22;41972;48.774;9.282;2023-02-11T16:41:55;6.60;99.90
2158;DHT22;41972;48.774;9.282;2023-02-11T16:44:21;6.70;99.90
2158;DHT22;41972;48.774;9.282;2023-02-11T16:46:47;6.60;99.90
2158;DHT22;41972;48.774;9.282;2023-02-11T16:49:27;6.60;99.90
2158;DHT22;41972;48.774;9.282;2023-02-11T16:51:55;6.60;99.90
2158;DHT22;41972;48.774;9.282;2023-02-11T16:54:22;6.60;99.90
2158;DHT22;41972;48.774;9.282;2023-02-11T16:56:48;6.60;99.90
2158;DHT22;41972;48.774;9.282;2023-02-11T16:59:14;6.60;99.90
2158;DHT22;41972;48.774;9.282;2023-02-11T17:01:41;6.50;99.90
2158;DHT22;41972;48.774;9.282;2023-02-11T17:04:14;6.50;99.90
2158;DHT22;41972;48.774;9.282;2023-02-11T17:06:41;6.50;99.90
2158;DHT22;41972;48.774;9.282;2023-02-11T17:09:10;6.50;99.90
2158;DHT22;41972;48.774;9.282;2023-02-11T17:11:39;6.50;99.90
2158;DHT22;41972;48.774;9.282;2023-02-11T17:14:05;6.50;99.90
2158;DHT22;41972;48.774;9.282;2023-02-11T17:16:30;6.50;99.90
2158;DHT22;41972;48.774;9.282;2023-02-11T17:18:56;6.40;99.90
2158;DHT22;41972;48.774;9.282;2023-02-11T17:21:22;6.40;99.90
2158;DHT22;41972;48.774;9.282;2023-02-11T17:23:50;6.50;99.90
2158;DHT22;41972;48.774;9.282;2023-02-11T17:26:15;6.40;99.90
2158;DHT22;41972;48.774;9.282;2023-02-11T17:28:41;6.40;99.90
2158;DHT22;41972;48.774;9.282;2023-02-11T17:31:08;6.40;99.90
2158;DHT22;41972;48.774;9.282;2023-02-11T17:33:33;6.40;99.90
2158;DHT22;41972;48.774;9.282;2023-02-11T17:36:03;6.40;99.90
2158;DHT22;41972;48.774;9.282;2023-02-11T17:38:29;6.40;99.90
2158;DHT22;41972;48.774;9.282;2023-02-11T17:40:56;6.50;99.90
2158;DHT22;41972;48.774;9.282;2023-02-11T17:43:23;6.50;99.90
2158;DHT22;41972;48.774;9.282;2023-02-11T17:45:49;6.60;99.90
2158;DHT22;41972;48.774;9.282;2023-02-11T17:48:14;6.50;99.90
2158;DHT22;41972;48.774;9.282;2023-02-11T17:50:40;6.50;99.90
2158;DHT22;41972;48.774;9.282;2023-02-11T17:53:05;6.50;99.90
2158;DHT22;41972;48.774;9.282;2023-02-11T17:55:32;6.20;99.90
2158;DHT22;41972;48.774;9.282;2023-02-11T17:57:58;6.10;99.90
2158;DHT22;41972;48.774;9.282;2023-02-11T18:00:23;6.00;99.90
2158;DHT22;41972;48.774;9.282;2023-02-11T18:02:49;6.20;99.90
2158;DHT22;41972;48.774;9.282;2023-02-11T18:05:15;6.30;99.90
2158;DHT22;41972;48.774;9.282;2023-02-11T18:07:40;6.20;99.90
2158;DHT22;41972;48.774;9.282;2023-02-11T18:10:07;5.80;99.90
2158;DHT22;41972;48.774;9.282;2023-02-11T18:12:33;6.00;99.90
2158;DHT22;41972;48.774;9.282;2023-02-11T18:14:58;5.70;99.90
2158;DHT22;41972;48.774;9.282;2023-02-11T18:17:24;5.80;99.90
2158;DHT22;41972;48.774;9.282;2023-02-11T18:19:49;5.70;99.90
2158;DHT22;41972;48.774;9.282;2023-02-11T18:22:16;5.70;99.90
2158;DHT22;41972;48.774;9.282;2023-02-11T18:24:42;5.80;99.90
2158;DHT22;41972;48.774;9.282;2023-02-11T18:27:07;5.70;99.90